createdAt,value
2018-07-01T00:00:20.761Z,1.20
2018-07-01T00:02:49.210Z,1.20
2018-07-01T00:05:17.584Z,1.23
2018-07-01T00:07:46.067Z,1.70
2018-07-01T00:10:15.231Z,1.40
2018-07-01T00:12:43.658Z,1.70
2018-07-01T00:15:12.180Z,1.57
2018-07-01T00:17:40.332Z,1.40
2018-07-01T00:20:09.507Z,1.60
2018-07-01T00:22:38.390Z,1.63
2018-07-01T00:25:06.977Z,1.37
2018-07-01T00:27:35.411Z,1.70
2018-07-01T00:30:04.631Z,2.03
2018-07-01T00:32:33.033Z,1.70
2018-07-01T00:35:01.433Z,1.53
2018-07-01T00:37:29.826Z,1.90
2018-07-01T00:39:58.221Z,1.33
2018-07-01T00:42:26.645Z,1.70
2018-07-01T00:44:55.057Z,1.70
2018-07-01T00:47:23.489Z,1.60
2018-07-01T00:49:51.889Z,1.70
2018-07-01T00:52:20.918Z,1.73
2018-07-01T00:54:49.293Z,1.80
2018-07-01T00:57:17.684Z,1.80
2018-07-01T00:59:46.118Z,1.83
2018-07-01T01:02:14.497Z,1.70
2018-07-01T01:04:42.897Z,1.93
2018-07-01T01:07:11.302Z,1.60
2018-07-01T01:09:39.689Z,1.80
2018-07-01T01:12:08.053Z,2.10
2018-07-01T01:14:36.442Z,1.90
2018-07-01T01:17:04.858Z,1.70
2018-07-01T01:19:33.255Z,1.77
2018-07-01T01:22:01.630Z,2.00
2018-07-01T01:24:30.089Z,2.00
2018-07-01T01:26:58.573Z,1.90
2018-07-01T01:29:26.950Z,2.23
2018-07-01T01:31:55.377Z,2.20
2018-07-01T01:34:23.748Z,2.13
2018-07-01T01:36:52.172Z,2.10
2018-07-01T01:39:24.146Z,2.20
2018-07-01T01:42:02.750Z,2.00
2018-07-01T01:44:37.682Z,2.20
2018-07-01T01:47:17.680Z,2.03
2018-07-01T01:49:57.657Z,2.10
2018-07-01T01:52:31.972Z,2.30
2018-07-01T01:55:06.561Z,2.30
2018-07-01T01:57:41.064Z,2.10
2018-07-01T02:00:15.534Z,2.30
2018-07-01T02:02:50.926Z,2.13
2018-07-01T02:05:26.106Z,2.30
2018-07-01T02:08:04.797Z,2.17
2018-07-01T02:10:33.239Z,2.10
2018-07-01T02:13:01.654Z,2.07
2018-07-01T02:15:34.650Z,2.20
2018-07-01T02:18:03.063Z,2.20
2018-07-01T02:20:34.102Z,2.27
2018-07-01T02:23:06.685Z,2.20
2018-07-01T02:25:36.399Z,2.43
2018-07-01T02:28:04.858Z,2.30
2018-07-01T02:30:33.283Z,2.40
2018-07-01T02:33:01.880Z,2.30
2018-07-01T02:35:30.322Z,2.00
2018-07-01T02:37:58.671Z,2.23
2018-07-01T02:40:27.070Z,2.30
2018-07-01T02:42:55.518Z,2.30
2018-07-01T02:45:23.953Z,2.30
2018-07-01T02:47:52.343Z,2.10
2018-07-01T02:50:20.766Z,2.30
2018-07-01T02:52:49.154Z,2.10
2018-07-01T02:55:17.549Z,2.30
2018-07-01T02:57:45.922Z,2.20
2018-07-01T03:00:14.326Z,2.20
2018-07-01T03:02:42.822Z,2.10
2018-07-01T03:05:11.166Z,2.20
2018-07-01T03:07:39.530Z,2.10
2018-07-01T03:10:07.921Z,2.10
2018-07-01T03:12:36.340Z,2.17
2018-07-01T03:15:04.715Z,2.20
2018-07-01T03:17:33.147Z,2.30
2018-07-01T03:20:01.543Z,2.37
2018-07-01T03:22:29.997Z,2.10
2018-07-01T03:24:58.492Z,2.10
2018-07-01T03:27:26.921Z,2.10
2018-07-01T03:29:55.373Z,2.10
2018-07-01T03:32:23.981Z,2.07
2018-07-01T03:34:52.341Z,2.40
2018-07-01T03:37:20.786Z,2.00
2018-07-01T03:39:49.254Z,2.00
2018-07-01T03:42:17.644Z,1.80
2018-07-01T03:44:46.070Z,2.10
2018-07-01T03:47:14.469Z,2.20
2018-07-01T03:49:43.546Z,1.90
2018-07-01T03:52:11.923Z,2.10
2018-07-01T03:54:40.311Z,2.20
2018-07-01T03:57:08.685Z,2.00
2018-07-01T03:59:37.067Z,2.07
2018-07-01T04:02:05.545Z,1.90
2018-07-01T04:04:33.950Z,1.70
2018-07-01T04:07:02.365Z,1.87
2018-07-01T04:09:34.429Z,1.93
2018-07-01T04:12:03.297Z,1.90
2018-07-01T04:14:31.875Z,2.27
2018-07-01T04:17:00.155Z,2.03
2018-07-01T04:19:36.149Z,1.73
2018-07-01T04:22:05.797Z,1.90
2018-07-01T04:24:34.556Z,2.10
2018-07-01T04:27:02.991Z,1.90
2018-07-01T04:29:31.450Z,2.30
2018-07-01T04:31:59.906Z,1.90
2018-07-01T04:34:28.389Z,1.83
2018-07-01T04:36:56.857Z,1.90
2018-07-01T04:39:25.609Z,1.53
2018-07-01T04:41:53.982Z,1.93
2018-07-01T04:44:23.317Z,1.60
2018-07-01T04:46:51.789Z,1.93
2018-07-01T04:49:20.212Z,2.20
2018-07-01T04:51:48.577Z,2.10
2018-07-01T04:54:17.030Z,2.00
2018-07-01T04:56:45.132Z,1.53
2018-07-01T04:59:13.514Z,1.77
2018-07-01T05:01:41.915Z,1.83
2018-07-01T05:04:10.361Z,1.70
2018-07-01T05:06:38.736Z,1.80
2018-07-01T05:09:09.666Z,1.80
2018-07-01T05:11:38.224Z,2.00
2018-07-01T05:14:06.607Z,1.90
2018-07-01T05:16:35.072Z,1.77
2018-07-01T05:19:03.647Z,1.67
2018-07-01T05:21:32.046Z,1.63
2018-07-01T05:24:00.437Z,1.67
2018-07-01T05:26:28.841Z,1.53
2018-07-01T05:28:58.444Z,1.70
2018-07-01T05:31:27.208Z,1.87
2018-07-01T05:33:56.297Z,1.50
2018-07-01T05:36:24.665Z,1.73
2018-07-01T05:38:53.065Z,1.43
2018-07-01T05:41:21.475Z,1.30
2018-07-01T05:43:49.821Z,1.50
2018-07-01T05:46:18.286Z,1.67
2018-07-01T05:48:46.781Z,1.60
2018-07-01T05:51:15.197Z,1.60
2018-07-01T05:53:43.641Z,1.37
2018-07-01T05:56:12.061Z,1.40
2018-07-01T05:58:40.198Z,1.40
2018-07-01T06:01:08.637Z,1.60
2018-07-01T06:03:37.097Z,1.57
2018-07-01T06:06:05.682Z,1.60
2018-07-01T06:08:34.393Z,1.50
2018-07-01T06:11:02.861Z,1.43
2018-07-01T06:13:31.277Z,1.40
2018-07-01T06:15:59.712Z,1.50
2018-07-01T06:18:28.140Z,1.40
2018-07-01T06:20:56.549Z,1.40
2018-07-01T06:23:24.962Z,1.53
2018-07-01T06:25:53.355Z,1.77
2018-07-01T06:28:21.738Z,1.47
2018-07-01T06:30:50.181Z,1.50
2018-07-01T06:33:18.581Z,1.40
2018-07-01T06:35:47.073Z,1.40
2018-07-01T06:38:15.458Z,1.60
2018-07-01T06:40:43.570Z,1.40
2018-07-01T06:43:12.206Z,0.97
2018-07-01T06:45:40.605Z,1.30
2018-07-01T06:48:08.901Z,1.20
2018-07-01T06:50:37.393Z,1.30
2018-07-01T06:53:06.055Z,1.40
2018-07-01T06:55:34.192Z,1.30
2018-07-01T06:58:02.625Z,1.67
2018-07-01T07:00:30.994Z,1.10
2018-07-01T07:02:59.389Z,1.50
2018-07-01T07:05:27.834Z,1.30
2018-07-01T07:07:56.286Z,1.17
2018-07-01T07:10:24.767Z,1.20
2018-07-01T07:12:53.138Z,1.30
2018-07-01T07:15:21.657Z,1.33
2018-07-01T07:17:50.082Z,1.30
2018-07-01T07:20:18.479Z,1.40
2018-07-01T07:22:46.884Z,1.30
2018-07-01T07:25:15.286Z,1.20
2018-07-01T07:27:43.363Z,1.30
2018-07-01T07:30:11.814Z,1.10
2018-07-01T07:32:40.306Z,1.37
2018-07-01T07:35:08.816Z,1.53
2018-07-01T07:37:37.505Z,1.47
2018-07-01T07:40:05.573Z,1.30
2018-07-01T07:42:34.040Z,1.30
2018-07-01T07:45:02.599Z,1.20
2018-07-01T07:47:30.892Z,1.33
2018-07-01T07:49:59.266Z,1.10
2018-07-01T07:52:27.727Z,1.20
2018-07-01T07:54:56.129Z,1.53
2018-07-01T07:57:24.584Z,1.27
2018-07-01T07:59:52.965Z,1.20
2018-07-01T08:02:21.366Z,1.40
2018-07-01T08:04:49.760Z,1.20
2018-07-01T08:07:18.228Z,1.37
2018-07-01T08:09:46.622Z,1.40
2018-07-01T08:12:15.037Z,1.40
2018-07-01T08:14:43.449Z,1.20
2018-07-01T08:17:12.094Z,1.27
2018-07-01T08:19:40.839Z,1.10
2018-07-01T08:22:09.237Z,1.27
2018-07-01T08:24:37.641Z,1.10
2018-07-01T08:27:06.105Z,1.30
2018-07-01T08:29:34.483Z,1.30
2018-07-01T08:32:02.870Z,1.40
2018-07-01T08:34:31.273Z,1.33
2018-07-01T08:36:59.705Z,1.40
2018-07-01T08:39:28.142Z,2.60
2018-07-01T08:42:30.227Z,1.50
2018-07-01T08:44:59.809Z,1.50
2018-07-01T08:47:28.517Z,1.10
2018-07-01T08:49:56.995Z,1.27
2018-07-01T08:52:25.559Z,1.50
2018-07-01T08:54:53.963Z,1.60
2018-07-01T08:57:23.218Z,1.13
2018-07-01T08:59:51.852Z,1.10
2018-07-01T09:02:20.757Z,1.87
2018-07-01T09:04:49.188Z,1.20
2018-07-01T09:07:18.214Z,1.43
2018-07-01T09:09:46.970Z,1.27
2018-07-01T09:12:15.409Z,1.50
2018-07-01T09:14:43.849Z,1.40
2018-07-01T09:17:12.312Z,1.50
2018-07-01T09:19:40.821Z,1.33
2018-07-01T09:22:09.309Z,1.00
2018-07-01T09:24:37.677Z,0.80
2018-07-01T09:27:06.178Z,0.90
2018-07-01T09:29:34.285Z,1.17
2018-07-01T09:32:02.682Z,1.30
2018-07-01T09:34:31.117Z,1.10
2018-07-01T09:36:59.521Z,1.50
2018-07-01T09:39:27.968Z,1.20
2018-07-01T09:41:56.736Z,1.20
2018-07-01T09:44:25.236Z,1.30
2018-07-01T09:46:53.592Z,0.97
2018-07-01T09:49:22.013Z,0.90
2018-07-01T09:51:50.093Z,1.20
2018-07-01T09:54:18.580Z,1.00
2018-07-01T09:56:47.057Z,1.20
2018-07-01T09:59:15.475Z,0.97
2018-07-01T10:01:43.865Z,1.10
2018-07-01T10:04:12.228Z,1.00
2018-07-01T10:06:40.617Z,1.40
2018-07-01T10:09:10.082Z,1.10
2018-07-01T10:11:38.613Z,1.10
2018-07-01T10:14:07.883Z,1.10
2018-07-01T10:16:36.370Z,1.37
2018-07-01T10:19:05.130Z,1.17
2018-07-01T10:21:33.713Z,1.37
2018-07-01T10:24:02.593Z,1.20
2018-07-01T10:26:30.970Z,1.27
2018-07-01T10:29:04.121Z,1.30
2018-07-01T10:31:32.933Z,1.20
2018-07-01T10:34:01.298Z,1.10
2018-07-01T10:36:29.808Z,1.03
2018-07-01T10:38:58.244Z,1.33
2018-07-01T10:41:26.715Z,1.20
2018-07-01T10:43:55.849Z,1.17
2018-07-01T10:46:24.214Z,1.10
2018-07-01T10:48:53.679Z,0.97
2018-07-01T10:51:22.198Z,1.10
2018-07-01T10:53:50.571Z,1.00
2018-07-01T10:56:18.951Z,0.87
2018-07-01T10:58:47.350Z,1.10
2018-07-01T11:01:15.832Z,1.30
2018-07-01T11:03:44.302Z,1.13
2018-07-01T11:06:12.753Z,1.00
2018-07-01T11:08:41.150Z,1.10
2018-07-01T11:11:09.548Z,1.10
2018-07-01T11:13:37.933Z,1.20
2018-07-01T11:16:06.461Z,0.80
2018-07-01T11:18:34.858Z,1.33
2018-07-01T11:21:03.298Z,1.17
2018-07-01T11:23:31.780Z,1.00
2018-07-01T11:26:00.909Z,1.23
2018-07-01T11:28:29.309Z,1.00
2018-07-01T11:30:57.859Z,1.03
2018-07-01T11:33:26.860Z,0.90
2018-07-01T11:35:55.267Z,1.30
2018-07-01T11:38:24.274Z,0.90
2018-07-01T11:40:52.847Z,1.10
2018-07-01T11:43:21.206Z,1.20
2018-07-01T11:45:49.675Z,1.10
2018-07-01T11:48:18.082Z,1.00
2018-07-01T11:50:46.470Z,0.80
2018-07-01T11:53:15.766Z,1.00
2018-07-01T11:55:43.876Z,1.10
2018-07-01T11:58:12.339Z,1.07
2018-07-01T12:00:40.755Z,1.03
2018-07-01T12:03:09.154Z,0.93
2018-07-01T12:05:37.552Z,0.90
2018-07-01T12:08:06.141Z,0.97
2018-07-01T12:10:34.551Z,1.00
2018-07-01T12:14:50.809Z,1.10
2018-07-01T12:17:19.191Z,1.07
2018-07-01T12:19:47.698Z,0.80
2018-07-01T12:22:16.706Z,1.10
2018-07-01T12:24:45.127Z,0.87
2018-07-01T12:27:13.487Z,0.90
2018-07-01T12:29:41.975Z,0.87
2018-07-01T12:32:10.414Z,0.90
2018-07-01T12:34:38.821Z,1.07
2018-07-01T12:37:07.282Z,1.00
2018-07-01T12:39:35.675Z,1.00
2018-07-01T12:42:04.586Z,1.00
2018-07-01T12:44:33.005Z,1.00
2018-07-01T12:47:01.390Z,1.10
2018-07-01T12:49:29.782Z,1.10
2018-07-01T12:51:58.162Z,0.73
2018-07-01T12:54:26.579Z,0.93
2018-07-01T12:56:54.977Z,1.03
2018-07-01T12:59:23.586Z,0.90
2018-07-01T13:01:52.086Z,1.10
2018-07-01T13:04:20.443Z,0.93
2018-07-01T13:06:49.310Z,1.00
2018-07-01T13:09:17.698Z,1.10
2018-07-01T13:11:46.357Z,1.07
2018-07-01T13:14:14.726Z,1.10
2018-07-01T13:16:43.215Z,1.10
2018-07-01T13:19:11.596Z,0.87
2018-07-01T13:21:39.977Z,0.90
2018-07-01T13:24:08.366Z,0.97
2018-07-01T13:26:36.788Z,1.20
2018-07-01T13:29:05.336Z,0.77
2018-07-01T13:31:33.459Z,0.97
2018-07-01T13:34:01.881Z,1.03
2018-07-01T13:36:30.269Z,1.10
2018-07-01T13:38:58.683Z,0.80
2018-07-01T13:41:27.057Z,1.10
2018-07-01T13:43:55.513Z,1.00
2018-07-01T13:46:23.957Z,1.13
2018-07-01T13:48:52.486Z,0.83
2018-07-01T13:51:20.913Z,0.60
2018-07-01T13:53:49.362Z,1.00
2018-07-01T13:56:17.758Z,0.77
2018-07-01T13:58:46.146Z,0.87
2018-07-01T14:01:14.614Z,1.03
2018-07-01T14:03:43.013Z,1.20
2018-07-01T14:06:11.398Z,0.90
2018-07-01T14:08:39.807Z,1.00
2018-07-01T14:11:08.378Z,0.90
2018-07-01T14:13:36.836Z,1.07
2018-07-01T14:16:05.556Z,1.20
2018-07-01T14:18:34.133Z,1.10
2018-07-01T14:21:02.531Z,1.00
2018-07-01T14:23:31.043Z,1.20
2018-07-01T14:25:59.465Z,1.10
2018-07-01T14:28:27.903Z,1.00
2018-07-01T14:30:56.577Z,0.93
2018-07-01T14:33:25.048Z,0.87
2018-07-01T14:35:53.491Z,0.83
2018-07-01T14:38:21.890Z,1.00
2018-07-01T14:40:51.247Z,1.00
2018-07-01T14:43:19.701Z,1.00
2018-07-01T14:45:48.129Z,1.13
2018-07-01T14:48:16.518Z,1.10
2018-07-01T14:50:45.058Z,1.30
2018-07-01T14:53:13.550Z,1.10
2018-07-01T14:55:42.013Z,1.00
2018-07-01T14:58:10.553Z,1.10
2018-07-01T15:00:38.989Z,1.27
2018-07-01T15:03:07.514Z,0.97
2018-07-01T15:05:35.993Z,1.00
2018-07-01T15:08:04.469Z,1.20
2018-07-01T15:10:32.889Z,1.10
2018-07-01T15:13:01.325Z,0.90
2018-07-01T15:15:29.749Z,1.10
2018-07-01T15:17:58.162Z,0.87
2018-07-01T15:20:26.646Z,1.10
2018-07-01T15:22:55.079Z,1.17
2018-07-01T15:25:23.467Z,1.00
2018-07-01T15:27:51.960Z,1.20
2018-07-01T15:30:20.366Z,1.60
2018-07-01T15:32:48.815Z,1.33
2018-07-01T15:35:17.196Z,1.23
2018-07-01T15:37:45.640Z,1.27
2018-07-01T15:40:14.117Z,1.17
2018-07-01T15:42:42.540Z,1.47
2018-07-01T15:45:10.942Z,1.30
2018-07-01T15:47:39.345Z,1.20
2018-07-01T15:50:07.805Z,1.20
2018-07-01T15:52:36.255Z,1.20
2018-07-01T15:55:04.829Z,1.00
2018-07-01T15:57:33.296Z,1.23
2018-07-01T16:00:02.023Z,1.37
2018-07-01T16:02:30.960Z,1.37
2018-07-01T16:04:59.401Z,1.20
2018-07-01T16:07:27.845Z,1.37
2018-07-01T16:09:56.241Z,1.13
2018-07-01T16:12:24.698Z,1.30
2018-07-01T16:14:53.743Z,1.30
2018-07-01T16:17:22.181Z,1.40
2018-07-01T16:19:50.617Z,1.20
2018-07-01T16:22:19.049Z,1.03
2018-07-01T16:24:52.844Z,1.50
2018-07-01T16:27:26.653Z,1.40
2018-07-01T16:29:55.182Z,1.30
2018-07-01T16:32:23.562Z,1.33
2018-07-01T16:34:51.984Z,1.30
2018-07-01T16:37:20.401Z,1.23
2018-07-01T16:39:48.827Z,0.90
2018-07-01T16:42:17.317Z,0.90
2018-07-01T16:44:45.713Z,1.27
2018-07-01T16:47:14.542Z,1.20
2018-07-01T16:49:43.145Z,0.90
2018-07-01T16:52:11.611Z,1.40
2018-07-01T16:54:40.084Z,1.20
2018-07-01T16:57:08.498Z,1.70
2018-07-01T16:59:36.945Z,1.43
2018-07-01T17:02:06.193Z,1.57
2018-07-01T17:04:34.612Z,1.30
2018-07-01T17:07:02.998Z,1.50
2018-07-01T17:09:31.393Z,1.50
2018-07-01T17:11:59.833Z,1.60
2018-07-01T17:14:28.270Z,1.27
2018-07-01T17:16:57.065Z,1.10
2018-07-01T17:19:25.539Z,1.60
2018-07-01T17:21:54.201Z,1.23
2018-07-01T17:24:22.624Z,1.47
2018-07-01T17:26:50.998Z,1.50
2018-07-01T17:29:19.349Z,1.30
2018-07-01T17:31:53.198Z,1.50
2018-07-01T17:34:21.736Z,1.40
2018-07-01T17:36:50.111Z,1.50
2018-07-01T17:39:18.494Z,1.43
2018-07-01T17:41:46.889Z,1.20
2018-07-01T17:44:15.255Z,1.30
2018-07-01T17:46:43.686Z,1.40
2018-07-01T17:49:12.085Z,1.20
2018-07-01T17:51:40.473Z,1.53
2018-07-01T17:54:08.989Z,1.23
2018-07-01T17:56:37.422Z,1.37
2018-07-01T17:59:05.875Z,1.50
2018-07-01T18:01:34.327Z,1.40
2018-07-01T18:04:02.733Z,1.20
2018-07-01T18:06:31.194Z,1.23
2018-07-01T18:08:59.612Z,1.20
2018-07-01T18:11:27.989Z,1.40
2018-07-01T18:13:57.114Z,1.33
2018-07-01T18:16:25.556Z,1.50
2018-07-01T18:18:54.110Z,1.27
2018-07-01T18:21:22.643Z,1.20
2018-07-01T18:24:19.494Z,1.23
2018-07-01T18:26:19.479Z,1.23
2018-07-01T18:28:59.157Z,1.20
2018-07-01T18:31:16.314Z,1.10
2018-07-01T18:33:44.872Z,1.30
2018-07-01T18:36:13.289Z,1.30
2018-07-01T18:38:41.733Z,1.00
2018-07-01T18:41:10.205Z,1.07
2018-07-01T18:43:38.662Z,1.37
2018-07-01T18:46:07.118Z,1.50
2018-07-01T18:48:35.539Z,1.33
2018-07-01T18:51:03.954Z,1.20
2018-07-01T18:53:32.400Z,1.40
2018-07-01T18:56:00.991Z,1.27
2018-07-01T18:58:29.373Z,1.30
2018-07-01T19:00:57.774Z,1.30
2018-07-01T19:03:26.356Z,1.30
2018-07-01T19:05:54.859Z,1.20
2018-07-01T19:08:23.735Z,1.13
2018-07-01T19:10:54.048Z,1.37
2018-07-01T19:13:22.455Z,1.40
2018-07-01T19:15:50.909Z,1.30
2018-07-01T19:18:19.549Z,1.27
2018-07-01T19:20:48.006Z,1.10
2018-07-01T19:23:16.406Z,1.03
2018-07-01T19:25:44.858Z,1.27
2018-07-01T19:28:13.301Z,1.40
2018-07-01T19:30:41.733Z,1.10
2018-07-01T19:33:10.165Z,1.03
2018-07-01T19:35:38.574Z,1.10
2018-07-01T19:38:07.056Z,1.40
2018-07-01T19:40:35.505Z,1.60
2018-07-01T19:43:04.406Z,1.20
2018-07-01T19:45:32.638Z,1.20
2018-07-01T19:48:01.045Z,1.30
2018-07-01T19:50:29.492Z,1.33
2018-07-01T19:52:57.944Z,1.13
2018-07-01T19:55:26.390Z,1.30
2018-07-01T19:57:56.225Z,1.10
2018-07-01T20:00:24.718Z,1.37
2018-07-01T20:02:53.097Z,1.30
2018-07-01T20:05:21.551Z,1.40
2018-07-01T20:07:49.965Z,1.40
2018-07-01T20:10:18.340Z,1.10
2018-07-01T20:12:46.705Z,1.20
2018-07-01T20:15:15.157Z,1.23
2018-07-01T20:17:43.561Z,1.17
2018-07-01T20:20:12.107Z,1.40
2018-07-01T20:22:40.545Z,1.13
2018-07-01T20:25:09.353Z,1.20
2018-07-01T20:27:37.780Z,1.23
2018-07-01T20:30:06.383Z,1.23
2018-07-01T20:32:34.864Z,1.20
2018-07-01T20:35:03.286Z,1.13
2018-07-01T20:37:31.746Z,1.10
2018-07-01T20:40:01.416Z,1.30
2018-07-01T20:42:29.850Z,1.20
2018-07-01T20:44:58.255Z,1.20
2018-07-01T20:47:26.613Z,1.17
2018-07-01T20:49:55.049Z,1.10
2018-07-01T20:52:23.438Z,1.17
2018-07-01T20:54:51.853Z,1.20
2018-07-01T20:57:20.261Z,1.20
2018-07-01T20:59:48.652Z,1.20
2018-07-01T21:02:17.053Z,1.30
2018-07-01T21:04:45.414Z,1.40
2018-07-01T21:07:13.825Z,1.10
2018-07-01T21:09:42.245Z,1.10
2018-07-01T21:12:11.054Z,1.13
2018-07-01T21:14:39.466Z,1.00
2018-07-01T21:17:07.865Z,1.20
2018-07-01T21:19:36.257Z,1.10
2018-07-01T21:22:04.709Z,1.20
2018-07-01T21:24:33.065Z,1.30
2018-07-01T21:27:01.344Z,1.27
2018-07-01T21:29:29.781Z,1.20
2018-07-01T21:31:58.195Z,1.27
2018-07-01T21:34:26.573Z,1.30
2018-07-01T21:36:54.685Z,1.40
2018-07-01T21:39:23.054Z,1.33
2018-07-01T21:41:52.018Z,1.33
2018-07-01T21:44:20.191Z,1.50
2018-07-01T21:46:48.573Z,1.20
2018-07-01T21:49:17.054Z,1.47
2018-07-01T21:51:45.442Z,0.90
2018-07-01T21:54:13.894Z,1.20
2018-07-01T21:56:42.341Z,1.40
2018-07-01T21:59:10.777Z,1.27
2018-07-01T22:01:39.254Z,1.30
2018-07-01T22:04:07.700Z,1.20
2018-07-01T22:06:41.260Z,1.13
2018-07-01T22:09:09.703Z,1.40
2018-07-01T22:11:50.600Z,1.30
2018-07-01T22:14:31.786Z,1.40
2018-07-01T22:17:00.681Z,1.17
2018-07-01T22:19:29.308Z,1.20
2018-07-01T22:21:58.297Z,1.33
2018-07-01T22:24:28.170Z,1.40
2018-07-01T22:26:56.661Z,1.13
2018-07-01T22:29:25.138Z,1.20
2018-07-01T22:31:53.549Z,1.40
2018-07-01T22:34:22.379Z,1.50
2018-07-01T22:36:51.029Z,1.33
2018-07-01T22:39:22.549Z,1.37
2018-07-01T22:41:51.456Z,1.20
2018-07-01T22:44:19.836Z,1.20
2018-07-01T22:46:48.815Z,1.10
2018-07-01T22:49:17.304Z,1.37
2018-07-01T22:51:45.777Z,1.30
2018-07-01T22:54:14.247Z,1.50
2018-07-01T22:56:42.646Z,1.50
2018-07-01T22:59:11.049Z,1.30
2018-07-01T23:02:47.228Z,1.30
2018-07-01T23:05:15.677Z,1.10
2018-07-01T23:07:44.076Z,1.20
2018-07-01T23:10:12.473Z,1.30
2018-07-01T23:12:41.458Z,1.60
2018-07-01T23:15:09.856Z,1.40
2018-07-01T23:17:38.246Z,1.20
2018-07-01T23:20:06.910Z,1.20
2018-07-01T23:22:35.353Z,1.20
2018-07-01T23:25:03.781Z,1.30
2018-07-01T23:27:32.166Z,1.40
2018-07-01T23:30:00.550Z,1.50
2018-07-01T23:32:29.447Z,1.20
2018-07-01T23:34:57.855Z,1.27
2018-07-01T23:37:26.553Z,1.40
2018-07-01T23:39:54.975Z,1.40
2018-07-01T23:42:23.397Z,1.40
2018-07-01T23:44:51.994Z,1.20
2018-07-01T23:47:20.981Z,1.33
2018-07-01T23:49:49.391Z,1.40
2018-07-01T23:52:18.420Z,1.30
2018-07-01T23:54:46.949Z,1.30
2018-07-01T23:57:15.389Z,1.50
2018-07-01T23:59:43.830Z,1.10
